createdAt,value
2018-02-11T00:00:52.851Z,953.55
2018-02-11T00:02:47.248Z,953.56
2018-02-11T00:03:47.243Z,953.55
2018-02-11T00:05:40.647Z,953.50
2018-02-11T00:06:40.602Z,953.49
2018-02-11T00:08:34.004Z,953.49
2018-02-11T00:09:33.978Z,953.44
2018-02-11T00:11:28.374Z,953.44
2018-02-11T00:12:28.396Z,953.38
2018-02-11T00:14:22.767Z,953.43
2018-02-11T00:15:22.744Z,953.39
2018-02-11T00:17:16.175Z,953.39
2018-02-11T00:18:16.114Z,953.40
2018-02-11T00:20:09.534Z,953.39
2018-02-11T00:21:09.505Z,953.37
2018-02-11T00:23:02.925Z,953.42
2018-02-11T00:24:02.885Z,953.38
2018-02-11T00:25:56.371Z,953.35
2018-02-11T00:26:56.316Z,953.39
2018-02-11T00:28:49.679Z,953.38
2018-02-11T00:29:49.677Z,953.39
2018-02-11T00:31:44.097Z,953.34
2018-02-11T00:32:44.077Z,953.34
2018-02-11T00:34:37.407Z,953.34
2018-02-11T00:35:37.448Z,953.33
2018-02-11T00:37:30.854Z,953.26
2018-02-11T00:38:30.809Z,953.32
2018-02-11T00:40:24.236Z,953.31
2018-02-11T00:41:24.216Z,953.27
2018-02-11T00:43:17.563Z,953.31
2018-02-11T00:44:17.564Z,953.33
2018-02-11T00:46:10.986Z,953.30
2018-02-11T00:47:10.973Z,953.27
2018-02-11T00:49:04.361Z,953.24
2018-02-11T00:50:04.370Z,953.25
2018-02-11T00:51:57.789Z,953.29
2018-02-11T00:52:57.766Z,953.25
2018-02-11T00:54:52.182Z,953.24
2018-02-11T00:55:52.119Z,953.25
2018-02-11T00:57:45.546Z,953.25
2018-02-11T00:58:45.492Z,953.25
2018-02-11T01:00:39.889Z,953.22
2018-02-11T01:01:39.942Z,953.23
2018-02-11T01:03:33.301Z,953.21
2018-02-11T01:04:33.255Z,953.18
2018-02-11T01:06:26.627Z,953.21
2018-02-11T01:07:26.656Z,953.20
2018-02-11T01:09:20.052Z,953.15
2018-02-11T01:10:20.031Z,953.13
2018-02-11T01:12:14.425Z,953.14
2018-02-11T01:13:14.420Z,953.13
2018-02-11T01:15:07.794Z,953.11
2018-02-11T01:16:07.805Z,953.12
2018-02-11T01:18:02.212Z,953.09
2018-02-11T01:19:02.180Z,953.11
2018-02-11T01:20:55.573Z,953.12
2018-02-11T01:21:55.550Z,953.07
2018-02-11T01:23:48.996Z,953.01
2018-02-11T01:24:48.925Z,953.01
2018-02-11T01:26:42.334Z,952.95
2018-02-11T01:27:42.346Z,952.91
2018-02-11T01:29:35.739Z,952.91
2018-02-11T01:30:35.721Z,952.89
2018-02-11T01:32:29.125Z,952.87
2018-02-11T01:33:29.102Z,952.83
2018-02-11T01:35:22.437Z,952.79
2018-02-11T01:36:22.469Z,952.82
2018-02-11T01:38:15.860Z,952.76
2018-02-11T01:39:15.844Z,952.74
2018-02-11T01:41:10.345Z,952.72
2018-02-11T01:42:10.283Z,952.72
2018-02-11T01:44:03.720Z,952.68
2018-02-11T01:45:03.749Z,952.68
2018-02-11T01:46:57.077Z,952.69
2018-02-11T01:47:57.092Z,952.66
2018-02-11T01:49:50.459Z,952.62
2018-02-11T01:50:50.475Z,952.63
2018-02-11T01:52:44.916Z,952.57
2018-02-11T01:53:44.869Z,952.56
2018-02-11T01:55:38.201Z,952.52
2018-02-11T01:56:38.212Z,952.51
2018-02-11T01:58:31.622Z,952.45
2018-02-11T01:59:31.601Z,952.51
2018-02-11T02:01:25.992Z,952.42
2018-02-11T02:02:25.984Z,952.35
2018-02-11T02:04:21.376Z,952.28
2018-02-11T02:05:21.373Z,952.29
2018-02-11T02:07:15.743Z,952.23
2018-02-11T02:08:15.743Z,952.23
2018-02-11T02:10:09.177Z,952.24
2018-02-11T02:11:09.157Z,952.21
2018-02-11T02:13:02.506Z,952.19
2018-02-11T02:14:02.516Z,952.14
2018-02-11T02:15:56.916Z,952.15
2018-02-11T02:16:56.883Z,952.12
2018-02-11T02:18:50.319Z,952.05
2018-02-11T02:19:50.323Z,952.04
2018-02-11T02:21:43.692Z,952.02
2018-02-11T02:22:43.683Z,952.02
2018-02-11T02:24:37.078Z,951.95
2018-02-11T02:25:37.060Z,952.00
2018-02-11T02:27:30.425Z,951.89
2018-02-11T02:28:30.477Z,951.86
2018-02-11T02:30:23.860Z,951.79
2018-02-11T02:31:23.864Z,951.81
2018-02-11T02:33:18.258Z,951.80
2018-02-11T02:34:18.295Z,951.79
2018-02-11T02:36:11.637Z,951.83
2018-02-11T02:37:11.609Z,951.77
2018-02-11T02:39:05.009Z,951.74
2018-02-11T02:40:05.023Z,951.69
2018-02-11T02:41:58.394Z,951.69
2018-02-11T02:42:58.348Z,951.66
2018-02-11T02:44:52.796Z,951.63
2018-02-11T02:45:52.760Z,951.63
2018-02-11T02:47:46.189Z,951.61
2018-02-11T02:48:46.179Z,951.60
2018-02-11T02:50:40.569Z,951.52
2018-02-11T02:51:40.521Z,951.55
2018-02-11T02:53:33.897Z,951.53
2018-02-11T02:54:33.913Z,951.51
2018-02-11T02:56:27.315Z,951.51
2018-02-11T02:57:27.302Z,951.45
2018-02-11T02:59:21.674Z,951.41
2018-02-11T03:00:21.651Z,951.37
2018-02-11T03:02:15.032Z,951.33
2018-02-11T03:03:15.040Z,951.34
2018-02-11T03:05:08.407Z,951.34
2018-02-11T03:06:08.385Z,951.34
2018-02-11T03:08:03.777Z,951.33
2018-02-11T03:09:03.777Z,951.39
2018-02-11T03:10:57.186Z,951.36
2018-02-11T03:11:57.196Z,951.32
2018-02-11T03:13:50.544Z,951.38
2018-02-11T03:14:50.556Z,951.34
2018-02-11T03:16:43.920Z,951.29
2018-02-11T03:17:43.912Z,951.26
2018-02-11T03:19:37.354Z,951.27
2018-02-11T03:20:37.341Z,951.23
2018-02-11T03:22:31.736Z,951.20
2018-02-11T03:23:31.702Z,951.19
2018-02-11T03:25:26.106Z,951.15
2018-02-11T03:26:26.087Z,951.12
2018-02-11T03:28:20.444Z,951.00
2018-02-11T03:29:20.465Z,951.04
2018-02-11T03:31:13.907Z,951.08
2018-02-11T03:32:13.905Z,951.08
2018-02-11T03:34:07.220Z,951.07
2018-02-11T03:35:07.242Z,951.08
2018-02-11T03:37:00.636Z,951.10
2018-02-11T03:38:00.594Z,951.05
2018-02-11T03:39:53.981Z,951.11
2018-02-11T03:40:54.004Z,951.05
2018-02-11T03:42:48.409Z,951.11
2018-02-11T03:43:48.374Z,951.12
2018-02-11T03:45:42.753Z,951.08
2018-02-11T03:46:42.786Z,951.10
2018-02-11T03:48:36.134Z,951.03
2018-02-11T03:49:36.171Z,951.05
2018-02-11T03:51:30.502Z,950.99
2018-02-11T03:52:30.527Z,950.96
2018-02-11T03:54:24.936Z,950.91
2018-02-11T03:55:24.897Z,950.94
2018-02-11T03:57:18.255Z,950.93
2018-02-11T03:58:18.289Z,950.92
2018-02-11T04:00:11.687Z,950.92
2018-02-11T04:01:11.645Z,950.93
2018-02-11T04:03:05.006Z,950.93
2018-02-11T04:04:05.077Z,950.91
2018-02-11T04:05:58.708Z,950.92
2018-02-11T04:06:58.668Z,950.86
2018-02-11T04:08:52.068Z,950.81
2018-02-11T04:09:52.059Z,950.77
2018-02-11T04:11:45.469Z,950.72
2018-02-11T04:12:45.433Z,950.69
2018-02-11T04:14:39.847Z,950.66
2018-02-11T04:15:39.839Z,950.61
2018-02-11T04:17:33.251Z,950.60
2018-02-11T04:18:33.217Z,950.61
2018-02-11T04:20:27.603Z,950.58
2018-02-11T04:21:27.605Z,950.55
2018-02-11T04:23:20.959Z,950.55
2018-02-11T04:24:20.980Z,950.53
2018-02-11T04:26:15.398Z,950.54
2018-02-11T04:27:15.402Z,950.51
2018-02-11T04:29:08.758Z,950.49
2018-02-11T04:30:08.729Z,950.54
2018-02-11T04:32:02.169Z,950.55
2018-02-11T04:33:02.164Z,950.51
2018-02-11T04:34:55.519Z,950.49
2018-02-11T04:35:55.541Z,950.45
2018-02-11T04:37:48.925Z,950.47
2018-02-11T04:38:48.887Z,950.46
2018-02-11T04:40:42.341Z,950.47
2018-02-11T04:41:42.320Z,950.44
2018-02-11T04:43:36.703Z,950.45
2018-02-11T04:44:36.658Z,950.42
2018-02-11T04:46:30.149Z,950.40
2018-02-11T04:47:30.067Z,950.37
2018-02-11T04:49:23.473Z,950.31
2018-02-11T04:50:23.489Z,950.33
2018-02-11T04:52:17.895Z,950.23
2018-02-11T04:53:17.866Z,950.17
2018-02-11T04:55:12.239Z,950.19
2018-02-11T04:56:12.211Z,950.15
2018-02-11T04:58:05.671Z,950.16
2018-02-11T04:59:05.586Z,950.15
2018-02-11T05:00:58.990Z,950.16
2018-02-11T05:01:58.990Z,950.16
2018-02-11T05:03:52.379Z,950.16
2018-02-11T05:04:52.347Z,950.17
2018-02-11T05:06:45.708Z,950.15
2018-02-11T05:07:45.717Z,950.16
2018-02-11T05:09:39.189Z,950.19
2018-02-11T05:10:39.132Z,950.17
2018-02-11T05:12:33.543Z,950.12
2018-02-11T05:13:33.491Z,950.10
2018-02-11T05:15:27.876Z,950.05
2018-02-11T05:16:27.887Z,950.06
2018-02-11T05:18:21.274Z,950.00
2018-02-11T05:19:21.264Z,950.04
2018-02-11T05:21:14.652Z,949.98
2018-02-11T05:22:14.628Z,950.01
2018-02-11T05:24:07.988Z,950.03
2018-02-11T05:25:08.033Z,949.98
2018-02-11T05:27:01.415Z,949.94
2018-02-11T05:28:01.418Z,949.96
2018-02-11T05:29:55.820Z,949.95
2018-02-11T05:30:55.784Z,949.94
2018-02-11T05:32:49.209Z,949.89
2018-02-11T05:33:49.178Z,949.87
2018-02-11T05:35:42.584Z,949.80
2018-02-11T05:36:42.569Z,949.75
2018-02-11T05:38:35.910Z,949.76
2018-02-11T05:39:35.917Z,949.79
2018-02-11T05:41:29.365Z,949.76
2018-02-11T05:42:29.313Z,949.75
2018-02-11T05:44:22.654Z,949.69
2018-02-11T05:45:22.697Z,949.69
2018-02-11T05:47:17.146Z,949.55
2018-02-11T05:48:17.065Z,949.59
2018-02-11T05:50:10.457Z,949.56
2018-02-11T05:51:10.509Z,949.56
2018-02-11T05:53:04.818Z,949.61
2018-02-11T05:54:04.867Z,949.59
2018-02-11T05:55:58.233Z,949.54
2018-02-11T05:56:58.192Z,949.53
2018-02-11T05:58:51.613Z,949.54
2018-02-11T05:59:51.598Z,949.54
2018-02-11T06:01:45.954Z,949.49
2018-02-11T06:02:46.012Z,949.53
2018-02-11T06:04:40.378Z,949.46
2018-02-11T06:05:40.378Z,949.44
2018-02-11T06:07:33.715Z,949.46
2018-02-11T06:08:33.775Z,949.47
2018-02-11T06:10:28.129Z,949.45
2018-02-11T06:11:28.166Z,949.48
2018-02-11T06:13:21.566Z,949.52
2018-02-11T06:14:21.559Z,949.55
2018-02-11T06:16:14.906Z,949.59
2018-02-11T06:17:14.912Z,949.60
2018-02-11T06:19:08.298Z,949.56
2018-02-11T06:20:08.304Z,949.56
2018-02-11T06:22:01.692Z,949.53
2018-02-11T06:23:01.645Z,949.47
2018-02-11T06:24:55.010Z,949.46
2018-02-11T06:25:55.026Z,949.43
2018-02-11T06:27:48.457Z,949.47
2018-02-11T06:28:48.452Z,949.43
2018-02-11T06:30:41.856Z,949.41
2018-02-11T06:31:41.832Z,949.38
2018-02-11T06:33:35.220Z,949.38
2018-02-11T06:34:35.282Z,949.34
2018-02-11T06:36:28.638Z,949.35
2018-02-11T06:37:28.591Z,949.32
2018-02-11T06:39:22.074Z,949.30
2018-02-11T06:40:21.978Z,949.29
2018-02-11T06:42:15.359Z,949.26
2018-02-11T06:43:15.395Z,949.26
2018-02-11T06:45:09.755Z,949.22
2018-02-11T06:46:09.741Z,949.21
2018-02-11T06:48:04.142Z,949.18
2018-02-11T06:49:04.159Z,949.16
2018-02-11T06:50:57.473Z,949.16
2018-02-11T06:51:57.515Z,949.18
2018-02-11T06:53:50.917Z,949.25
2018-02-11T06:54:50.887Z,949.28
2018-02-11T06:56:45.292Z,949.31
2018-02-11T06:57:45.279Z,949.27
2018-02-11T06:59:38.696Z,949.22
2018-02-11T07:00:38.665Z,949.24
2018-02-11T07:02:32.056Z,949.28
2018-02-11T07:03:32.039Z,949.23
2018-02-11T07:05:25.422Z,949.23
2018-02-11T07:06:25.419Z,949.20
2018-02-11T07:08:18.820Z,949.20
2018-02-11T07:09:18.792Z,949.17
2018-02-11T07:11:14.198Z,949.11
2018-02-11T07:12:14.177Z,949.14
2018-02-11T07:14:08.567Z,949.06
2018-02-11T07:15:08.636Z,949.07
2018-02-11T07:17:02.968Z,948.99
2018-02-11T07:18:02.963Z,949.00
2018-02-11T07:19:56.341Z,948.95
2018-02-11T07:20:56.325Z,948.90
2018-02-11T07:22:50.746Z,948.84
2018-02-11T07:23:50.753Z,948.80
2018-02-11T07:25:44.143Z,948.81
2018-02-11T07:26:44.100Z,948.77
2018-02-11T07:28:37.537Z,948.77
2018-02-11T07:29:37.447Z,948.78
2018-02-11T07:31:30.914Z,948.79
2018-02-11T07:32:30.907Z,948.74
2018-02-11T07:34:24.300Z,948.69
2018-02-11T07:35:24.352Z,948.73
2018-02-11T07:37:17.732Z,948.77
2018-02-11T07:38:17.743Z,948.79
2018-02-11T07:40:11.041Z,948.79
2018-02-11T07:41:11.077Z,948.83
2018-02-11T07:43:04.448Z,948.85
2018-02-11T07:44:04.434Z,948.82
2018-02-11T07:45:57.903Z,948.87
2018-02-11T07:46:57.839Z,948.83
2018-02-11T07:48:51.262Z,948.88
2018-02-11T07:49:51.221Z,948.77
2018-02-11T07:51:44.607Z,948.68
2018-02-11T07:52:44.618Z,948.70
2018-02-11T07:54:39.026Z,948.69
2018-02-11T07:55:39.028Z,948.76
2018-02-11T07:57:32.487Z,948.69
2018-02-11T07:58:32.429Z,948.66
2018-02-11T08:00:25.810Z,948.70
2018-02-11T08:01:25.779Z,948.69
2018-02-11T08:03:20.149Z,948.64
2018-02-11T08:04:20.129Z,948.66
2018-02-11T08:06:14.560Z,948.66
2018-02-11T08:07:14.533Z,948.66
2018-02-11T08:09:08.952Z,948.64
2018-02-11T08:10:08.963Z,948.65
2018-02-11T08:12:02.316Z,948.61
2018-02-11T08:13:02.281Z,948.59
2018-02-11T08:14:55.750Z,948.54
2018-02-11T08:15:55.706Z,948.55
2018-02-11T08:17:50.108Z,948.49
2018-02-11T08:18:50.111Z,948.50
2018-02-11T08:20:43.492Z,948.46
2018-02-11T08:21:43.476Z,948.38
2018-02-11T08:23:36.821Z,948.49
2018-02-11T08:24:36.843Z,948.47
2018-02-11T08:26:30.246Z,948.41
2018-02-11T08:27:30.211Z,948.33
2018-02-11T08:29:24.620Z,948.33
2018-02-11T08:30:24.632Z,948.32
2018-02-11T08:32:19.030Z,948.28
2018-02-11T08:33:19.022Z,948.29
2018-02-11T08:35:12.456Z,948.32
2018-02-11T08:36:12.372Z,948.18
2018-02-11T08:38:05.759Z,948.23
2018-02-11T08:39:05.722Z,948.14
2018-02-11T08:40:59.147Z,948.16
2018-02-11T08:41:59.121Z,948.13
2018-02-11T08:43:52.543Z,948.18
2018-02-11T08:44:52.562Z,948.19
2018-02-11T08:46:46.935Z,948.16
2018-02-11T08:47:46.942Z,948.13
2018-02-11T08:49:40.283Z,948.16
2018-02-11T08:50:40.264Z,948.23
2018-02-11T08:52:34.661Z,948.16
2018-02-11T08:53:34.679Z,948.10
2018-02-11T08:55:28.075Z,948.06
2018-02-11T08:56:28.068Z,948.02
2018-02-11T08:58:21.764Z,948.03
2018-02-11T08:59:21.725Z,948.07
2018-02-11T09:01:15.807Z,948.00
2018-02-11T09:02:15.851Z,947.99
2018-02-11T09:04:09.232Z,947.94
2018-02-11T09:05:09.216Z,948.00
2018-02-11T09:07:02.758Z,948.03
2018-02-11T09:08:02.791Z,948.00
2018-02-11T09:09:57.144Z,947.88
2018-02-11T09:10:57.174Z,947.85
2018-02-11T09:12:50.557Z,947.83
2018-02-11T09:13:50.522Z,947.80
2018-02-11T09:15:44.940Z,947.84
2018-02-11T09:16:44.914Z,947.86
2018-02-11T09:18:38.291Z,947.86
2018-02-11T09:19:38.318Z,947.90
2018-02-11T09:21:31.910Z,948.03
2018-02-11T09:22:32.024Z,948.02
2018-02-11T09:24:25.114Z,947.99
2018-02-11T09:25:25.041Z,948.03
2018-02-11T09:27:18.459Z,947.97
2018-02-11T09:28:18.465Z,947.92
2018-02-11T09:30:12.833Z,947.91
2018-02-11T09:31:12.859Z,947.82
2018-02-11T09:33:06.198Z,947.74
2018-02-11T09:34:06.233Z,947.77
2018-02-11T09:36:00.650Z,947.76
2018-02-11T09:37:00.652Z,947.77
2018-02-11T09:38:54.035Z,947.74
2018-02-11T09:39:54.034Z,947.84
2018-02-11T09:41:48.430Z,947.80
2018-02-11T09:42:48.413Z,947.83
2018-02-11T09:44:41.786Z,947.82
2018-02-11T09:45:41.763Z,947.72
2018-02-11T09:47:36.179Z,947.76
2018-02-11T09:48:36.171Z,947.84
2018-02-11T09:50:29.599Z,947.73
2018-02-11T09:51:29.561Z,947.77
2018-02-11T09:53:23.966Z,947.74
2018-02-11T09:54:23.961Z,947.77
2018-02-11T09:56:17.462Z,947.72
2018-02-11T09:57:17.517Z,947.74
2018-02-11T09:59:10.768Z,947.74
2018-02-11T10:00:10.776Z,947.74
2018-02-11T10:02:05.173Z,947.80
2018-02-11T10:03:05.188Z,947.82
2018-02-11T10:04:58.472Z,947.77
2018-02-11T10:05:58.470Z,947.78
2018-02-11T10:07:51.870Z,947.71
2018-02-11T10:08:51.849Z,947.72
2018-02-11T10:10:45.239Z,947.72
2018-02-11T10:11:45.238Z,947.65
2018-02-11T10:13:38.651Z,947.67
2018-02-11T10:14:38.634Z,947.63
2018-02-11T10:16:32.022Z,947.73
2018-02-11T10:17:32.022Z,947.73
2018-02-11T10:19:25.424Z,947.63
2018-02-11T10:20:25.406Z,947.60
2018-02-11T10:22:18.800Z,947.54
2018-02-11T10:23:18.782Z,947.55
2018-02-11T10:25:12.191Z,947.50
2018-02-11T10:26:12.161Z,947.50
2018-02-11T10:28:05.542Z,947.55
2018-02-11T10:29:05.545Z,947.58
2018-02-11T10:30:58.955Z,947.64
2018-02-11T10:31:58.945Z,947.54
2018-02-11T10:33:52.396Z,947.61
2018-02-11T10:34:52.313Z,947.60
2018-02-11T10:36:45.711Z,947.56
2018-02-11T10:37:45.700Z,947.51
2018-02-11T10:39:39.162Z,947.52
2018-02-11T10:40:39.114Z,947.55
2018-02-11T10:42:32.555Z,947.51
2018-02-11T10:43:32.481Z,947.48
2018-02-11T10:45:25.904Z,947.46
2018-02-11T10:46:25.862Z,947.45
2018-02-11T10:48:19.276Z,947.48
2018-02-11T10:49:19.294Z,947.52
2018-02-11T10:51:12.703Z,947.44
2018-02-11T10:52:12.667Z,947.40
2018-02-11T10:54:06.039Z,947.38
2018-02-11T10:55:06.042Z,947.43
2018-02-11T10:56:59.482Z,947.46
2018-02-11T10:57:59.457Z,947.46
2018-02-11T10:59:52.797Z,947.40
2018-02-11T11:00:52.799Z,947.38
2018-02-11T11:02:46.238Z,947.38
2018-02-11T11:03:46.180Z,947.38
2018-02-11T11:05:39.574Z,947.42
2018-02-11T11:06:39.624Z,947.36
2018-02-11T11:08:32.973Z,947.29
2018-02-11T11:09:32.977Z,947.29
2018-02-11T11:11:26.404Z,947.32
2018-02-11T11:12:26.390Z,947.32
2018-02-11T11:14:19.714Z,947.39
2018-02-11T11:15:19.747Z,947.34
2018-02-11T11:17:13.150Z,947.29
2018-02-11T11:18:13.138Z,947.18
2018-02-11T11:20:06.480Z,947.21
2018-02-11T11:21:06.500Z,947.21
2018-02-11T11:22:59.906Z,947.22
2018-02-11T11:23:59.893Z,947.27
2018-02-11T11:25:53.310Z,947.18
2018-02-11T11:26:53.276Z,947.13
2018-02-11T11:28:46.727Z,947.15
2018-02-11T11:29:46.672Z,947.17
2018-02-11T11:31:40.061Z,947.05
2018-02-11T11:32:40.063Z,947.10
2018-02-11T11:34:33.490Z,947.06
2018-02-11T11:35:33.464Z,947.03
2018-02-11T11:37:26.882Z,947.08
2018-02-11T11:38:26.876Z,947.11
2018-02-11T11:40:20.335Z,947.10
2018-02-11T11:41:20.302Z,947.07
2018-02-11T11:43:13.656Z,946.96
2018-02-11T11:44:13.675Z,947.00
2018-02-11T11:46:07.067Z,946.98
2018-02-11T11:47:07.075Z,946.96
2018-02-11T11:49:00.457Z,947.05
2018-02-11T11:50:00.444Z,947.15
2018-02-11T11:51:54.863Z,947.13
2018-02-11T11:52:54.833Z,947.03
2018-02-11T11:54:49.299Z,947.02
2018-02-11T11:55:49.253Z,946.97
2018-02-11T11:57:42.626Z,946.99
2018-02-11T11:58:42.625Z,946.99
2018-02-11T12:00:36.062Z,947.06
2018-02-11T12:01:35.995Z,947.09
2018-02-11T12:03:29.455Z,946.84
2018-02-11T12:04:29.389Z,946.91
2018-02-11T12:06:23.382Z,946.92
2018-02-11T12:07:22.777Z,946.81
2018-02-11T12:09:16.166Z,946.71
2018-02-11T12:10:16.184Z,946.68
2018-02-11T12:12:09.595Z,946.60
2018-02-11T12:13:09.555Z,946.67
2018-02-11T12:15:02.930Z,946.59
2018-02-11T12:16:02.941Z,946.55
2018-02-11T12:17:56.334Z,946.56
2018-02-11T12:18:56.326Z,946.58
2018-02-11T12:20:49.724Z,946.57
2018-02-11T12:21:49.695Z,946.49
2018-02-11T12:23:43.103Z,946.51
2018-02-11T12:24:43.101Z,946.53
2018-02-11T12:26:36.548Z,946.49
2018-02-11T12:27:36.478Z,946.50
2018-02-11T12:29:29.895Z,946.39
2018-02-11T12:30:29.896Z,946.39
2018-02-11T12:32:23.297Z,946.35
2018-02-11T12:33:23.304Z,946.49
2018-02-11T12:35:16.735Z,946.36
2018-02-11T12:36:16.699Z,946.37
2018-02-11T12:38:11.113Z,946.32
2018-02-11T12:39:11.077Z,946.29
2018-02-11T12:41:05.459Z,946.23
2018-02-11T12:42:05.465Z,946.32
2018-02-11T12:43:58.878Z,946.31
2018-02-11T12:44:58.864Z,946.34
2018-02-11T12:46:52.199Z,946.28
2018-02-11T12:47:52.232Z,946.23
2018-02-11T12:49:45.641Z,946.31
2018-02-11T12:50:45.613Z,946.24
2018-02-11T12:52:39.053Z,946.29
2018-02-11T12:53:39.020Z,946.32
2018-02-11T12:55:32.408Z,946.28
2018-02-11T12:56:32.392Z,946.25
2018-02-11T12:58:25.788Z,946.16
2018-02-11T12:59:25.785Z,946.16
2018-02-11T13:01:19.146Z,946.12
2018-02-11T13:02:19.159Z,946.14
2018-02-11T13:04:12.554Z,946.14
2018-02-11T13:05:12.538Z,946.18
2018-02-11T13:07:06.087Z,946.06
2018-02-11T13:08:05.932Z,946.06
2018-02-11T13:09:59.331Z,946.10
2018-02-11T13:10:59.326Z,946.08
2018-02-11T13:12:52.716Z,946.08
2018-02-11T13:13:52.725Z,946.09
2018-02-11T13:15:46.171Z,946.09
2018-02-11T13:16:46.125Z,946.12
2018-02-11T13:18:40.516Z,946.05
2018-02-11T13:19:40.520Z,946.01
2018-02-11T13:21:33.921Z,946.02
2018-02-11T13:22:33.892Z,945.99
2018-02-11T13:24:27.291Z,946.02
2018-02-11T13:25:27.291Z,946.01
2018-02-11T13:27:20.678Z,946.00
2018-02-11T13:28:20.648Z,945.99
2018-02-11T13:30:14.070Z,946.00
2018-02-11T13:31:14.029Z,945.99
2018-02-11T13:33:07.422Z,946.05
2018-02-11T13:34:07.424Z,946.04
2018-02-11T13:36:00.849Z,946.10
2018-02-11T13:37:00.798Z,946.05
2018-02-11T13:38:54.176Z,946.02
2018-02-11T13:39:54.175Z,946.04
2018-02-11T13:41:47.587Z,945.99
2018-02-11T13:42:47.573Z,945.99
2018-02-11T13:44:40.948Z,945.99
2018-02-11T13:45:41.083Z,945.99
2018-02-11T13:47:34.365Z,945.95
2018-02-11T13:48:34.336Z,945.95
2018-02-11T13:50:27.723Z,945.89
2018-02-11T13:51:27.744Z,945.99
2018-02-11T13:53:21.176Z,945.98
2018-02-11T13:54:21.168Z,946.03
2018-02-11T13:56:14.509Z,945.96
2018-02-11T13:57:14.523Z,945.97
2018-02-11T13:59:07.926Z,945.97
2018-02-11T14:00:07.878Z,946.02
2018-02-11T14:02:01.268Z,945.89
2018-02-11T14:03:01.266Z,945.83
2018-02-11T14:04:54.676Z,945.81
2018-02-11T14:05:54.679Z,945.84
2018-02-11T14:07:48.045Z,945.80
2018-02-11T14:08:48.091Z,945.79
2018-02-11T14:10:41.484Z,945.81
2018-02-11T14:11:41.683Z,945.86
2018-02-11T14:13:34.905Z,945.78
2018-02-11T14:14:34.876Z,945.75
2018-02-11T14:16:28.217Z,945.75
2018-02-11T14:17:28.222Z,945.81
2018-02-11T14:19:21.619Z,945.76
2018-02-11T14:20:21.603Z,945.84
2018-02-11T14:22:14.996Z,945.80
2018-02-11T14:23:14.982Z,945.81
2018-02-11T14:25:08.394Z,945.79
2018-02-11T14:26:08.366Z,945.79
2018-02-11T14:28:01.750Z,945.78
2018-02-11T14:29:01.762Z,945.84
2018-02-11T14:30:55.172Z,945.77
2018-02-11T14:31:55.158Z,945.79
2018-02-11T14:33:49.576Z,945.83
2018-02-11T14:34:49.566Z,945.86
2018-02-11T14:36:43.006Z,945.85
2018-02-11T14:37:42.944Z,945.81
2018-02-11T14:39:36.338Z,945.80
2018-02-11T14:40:36.340Z,945.82
2018-02-11T14:42:29.718Z,945.76
2018-02-11T14:43:29.717Z,945.80
2018-02-11T14:45:23.113Z,945.75
2018-02-11T14:46:23.080Z,945.74
2018-02-11T14:48:16.474Z,945.72
2018-02-11T14:49:16.468Z,945.74
2018-02-11T14:51:09.871Z,945.78
2018-02-11T14:52:09.848Z,945.81
2018-02-11T14:54:04.293Z,945.80
2018-02-11T14:55:04.272Z,945.75
2018-02-11T14:56:57.708Z,945.68
2018-02-11T14:57:57.675Z,945.68
2018-02-11T14:59:51.047Z,945.65
2018-02-11T15:00:51.060Z,945.65
2018-02-11T15:02:44.464Z,945.67
2018-02-11T15:03:44.429Z,945.69
2018-02-11T15:05:37.820Z,945.64
2018-02-11T15:06:37.825Z,945.67
2018-02-11T15:08:31.225Z,945.62
2018-02-11T15:09:31.228Z,945.62
2018-02-11T15:11:24.601Z,945.65
2018-02-11T15:12:24.600Z,945.65
2018-02-11T15:14:18.000Z,945.67
2018-02-11T15:15:17.975Z,945.65
2018-02-11T15:17:11.364Z,945.66
2018-02-11T15:18:11.356Z,945.70
2018-02-11T15:20:04.760Z,945.70
2018-02-11T15:21:04.755Z,945.63
2018-02-11T15:22:58.161Z,945.65
2018-02-11T15:23:58.126Z,945.66
2018-02-11T15:25:52.520Z,945.63
2018-02-11T15:26:52.508Z,945.63
2018-02-11T15:28:46.926Z,945.69
2018-02-11T15:29:46.928Z,945.67
2018-02-11T15:31:40.313Z,945.67
2018-02-11T15:32:40.295Z,945.69
2018-02-11T15:34:33.712Z,945.64
2018-02-11T15:35:33.665Z,945.59
2018-02-11T15:37:27.059Z,945.56
2018-02-11T15:38:27.047Z,945.64
2018-02-11T15:40:20.505Z,945.60
2018-02-11T15:41:20.494Z,945.63
2018-02-11T15:43:13.843Z,945.70
2018-02-11T15:44:13.845Z,945.65
2018-02-11T15:46:07.249Z,945.64
2018-02-11T15:47:07.218Z,945.63
2018-02-11T15:49:00.631Z,945.67
2018-02-11T15:50:00.609Z,945.66
2018-02-11T15:51:54.008Z,945.67
2018-02-11T15:52:54.008Z,945.69
2018-02-11T15:54:48.351Z,945.74
2018-02-11T15:55:48.387Z,945.75
2018-02-11T15:57:41.742Z,945.75
2018-02-11T15:58:41.764Z,945.73
2018-02-11T16:00:36.132Z,945.73
2018-02-11T16:01:36.180Z,945.73
2018-02-11T16:03:29.507Z,945.72
2018-02-11T16:04:29.500Z,945.71
2018-02-11T16:06:22.897Z,945.70
2018-02-11T16:07:22.925Z,945.71
2018-02-11T16:09:16.313Z,945.71
2018-02-11T16:10:16.272Z,945.75
2018-02-11T16:12:09.653Z,945.72
2018-02-11T16:13:09.656Z,945.74
2018-02-11T16:15:03.065Z,945.70
2018-02-11T16:16:03.055Z,945.71
2018-02-11T16:17:57.428Z,945.70
2018-02-11T16:18:57.415Z,945.66
2018-02-11T16:20:50.826Z,945.64
2018-02-11T16:21:50.818Z,945.63
2018-02-11T16:23:45.222Z,945.53
2018-02-11T16:24:45.186Z,945.56
2018-02-11T16:26:38.581Z,945.58
2018-02-11T16:27:38.591Z,945.53
2018-02-11T16:29:31.977Z,945.59
2018-02-11T16:30:31.978Z,945.63
2018-02-11T16:32:25.352Z,945.62
2018-02-11T16:33:25.350Z,945.59
2018-02-11T16:35:18.756Z,945.61
2018-02-11T16:36:18.742Z,945.61
2018-02-11T16:38:12.126Z,945.68
2018-02-11T16:39:12.121Z,945.72
2018-02-11T16:41:05.511Z,945.72
2018-02-11T16:42:05.503Z,945.75
2018-02-11T16:43:58.881Z,945.74
2018-02-11T16:44:58.876Z,945.73
2018-02-11T16:46:52.309Z,945.78
2018-02-11T16:47:52.267Z,945.78
2018-02-11T16:49:45.645Z,945.80
2018-02-11T16:50:45.684Z,945.77
2018-02-11T16:52:39.111Z,945.82
2018-02-11T16:53:39.060Z,945.79
2018-02-11T16:55:32.415Z,945.78
2018-02-11T16:56:32.416Z,945.77
2018-02-11T16:58:25.818Z,945.76
2018-02-11T16:59:25.796Z,945.79
2018-02-11T17:01:19.237Z,945.79
2018-02-11T17:02:19.177Z,945.83
2018-02-11T17:04:12.563Z,945.83
2018-02-11T17:05:12.577Z,945.90
2018-02-11T17:07:05.993Z,945.99
2018-02-11T17:08:05.943Z,946.03
2018-02-11T17:10:00.319Z,946.07
2018-02-11T17:11:00.322Z,946.08
2018-02-11T17:12:53.724Z,946.06
2018-02-11T17:13:53.721Z,946.09
2018-02-11T17:15:47.083Z,946.06
2018-02-11T17:16:47.083Z,946.10
2018-02-11T17:18:40.496Z,946.12
2018-02-11T17:19:40.493Z,946.09
2018-02-11T17:21:33.861Z,946.12
2018-02-11T17:22:33.856Z,946.13
2018-02-11T17:24:27.291Z,946.14
2018-02-11T17:25:27.283Z,946.17
2018-02-11T17:27:20.677Z,946.17
2018-02-11T17:28:20.659Z,946.17
2018-02-11T17:30:14.061Z,946.16
2018-02-11T17:31:14.041Z,946.15
2018-02-11T17:33:07.422Z,946.19
2018-02-11T17:34:07.424Z,946.21
2018-02-11T17:36:01.848Z,946.22
2018-02-11T17:37:01.810Z,946.22
2018-02-11T17:38:55.192Z,946.28
2018-02-11T17:39:55.192Z,946.26
2018-02-11T17:41:48.610Z,946.30
2018-02-11T17:42:48.578Z,946.32
2018-02-11T17:44:42.004Z,946.30
2018-02-11T17:45:41.959Z,946.28
2018-02-11T17:47:35.347Z,946.31
2018-02-11T17:48:35.352Z,946.29
2018-02-11T17:50:28.746Z,946.27
2018-02-11T17:51:28.728Z,946.25
2018-02-11T17:53:22.120Z,946.26
2018-02-11T17:54:22.116Z,946.28
2018-02-11T17:56:15.518Z,946.28
2018-02-11T17:57:15.496Z,946.24
2018-02-11T17:59:08.891Z,946.22
2018-02-11T18:00:08.902Z,946.24
2018-02-11T18:02:02.307Z,946.21
2018-02-11T18:03:02.273Z,946.24